createdAt,value
2023-04-12T00:01:58.986Z,34.06
2023-04-12T00:04:29.039Z,33.85
2023-04-12T00:06:56.037Z,34.25
2023-04-12T00:09:22.622Z,34.24
2023-04-12T00:11:49.223Z,34.06
2023-04-12T00:14:15.829Z,34.29
2023-04-12T00:16:43.340Z,34.21
2023-04-12T00:19:10.751Z,33.97
2023-04-12T00:21:37.171Z,33.69
2023-04-12T00:24:03.693Z,33.89
2023-04-12T00:26:30.114Z,33.88
2023-04-12T00:28:56.724Z,33.77
2023-04-12T00:31:23.347Z,33.95
2023-04-12T00:33:49.819Z,33.87
2023-04-12T00:36:17.118Z,34.16
2023-04-12T00:38:45.924Z,33.83
2023-04-12T00:41:13.426Z,33.92
2023-04-12T00:43:41.851Z,33.96
2023-04-12T00:46:08.654Z,34.04
2023-04-12T00:48:37.755Z,34.42
2023-04-12T00:51:07.345Z,33.95
2023-04-12T00:53:34.119Z,34.37
2023-04-12T00:56:01.948Z,33.79
2023-04-12T00:58:28.369Z,34.16
2023-04-12T01:00:55.027Z,33.80
2023-04-12T01:03:27.697Z,34.06
2023-04-12T01:06:29.894Z,34.51
2023-04-12T01:09:27.522Z,34.03
2023-04-12T01:12:00.036Z,34.04
2023-04-12T01:14:45.052Z,34.66
2023-04-12T01:17:17.774Z,34.12
2023-04-12T01:20:09.840Z,34.80
2023-04-12T01:22:40.115Z,34.38
2023-04-12T01:25:12.605Z,34.21
2023-04-12T01:27:42.402Z,34.38
2023-04-12T01:30:13.150Z,34.52
2023-04-12T01:32:43.962Z,34.66
2023-04-12T01:35:11.576Z,34.68
2023-04-12T01:37:38.276Z,34.70
2023-04-12T01:40:05.974Z,34.89
2023-04-12T01:42:32.769Z,34.94
2023-04-12T01:44:59.252Z,34.90
2023-04-12T01:47:25.807Z,34.90
2023-04-12T01:50:15.649Z,35.66
2023-04-12T01:52:49.478Z,35.32
2023-04-12T01:55:17.308Z,35.22
2023-04-12T01:57:45.697Z,35.25
2023-04-12T02:00:14.049Z,35.34
2023-04-12T02:02:41.085Z,35.39
2023-04-12T02:05:09.232Z,35.29
2023-04-12T02:07:36.017Z,35.68
2023-04-12T02:10:02.410Z,35.64
2023-04-12T02:12:29.074Z,35.79
2023-04-12T02:14:57.106Z,35.91
2023-04-12T02:17:23.793Z,35.72
2023-04-12T02:19:50.351Z,35.83
2023-04-12T02:22:17.394Z,35.54
2023-04-12T02:24:44.001Z,35.92
2023-04-12T02:27:11.712Z,35.93
2023-04-12T02:29:38.064Z,35.93
2023-04-12T02:32:04.700Z,36.20
2023-04-12T02:34:34.511Z,36.33
2023-04-12T02:37:00.929Z,36.22
2023-04-12T02:39:29.209Z,36.45
2023-04-12T02:41:57.134Z,36.58
2023-04-12T02:44:23.581Z,36.42
2023-04-12T02:46:50.206Z,36.71
2023-04-12T02:49:16.532Z,36.80
2023-04-12T02:51:43.535Z,36.92
2023-04-12T02:54:09.906Z,37.05
2023-04-12T02:56:37.181Z,36.67
2023-04-12T02:59:03.618Z,36.93
2023-04-12T03:01:31.153Z,37.16
2023-04-12T03:03:57.820Z,37.07
2023-04-12T03:06:24.951Z,37.27
2023-04-12T03:08:51.347Z,37.20
2023-04-12T03:11:17.727Z,37.09
2023-04-12T03:13:44.134Z,36.92
2023-04-12T03:16:23.648Z,38.13
2023-04-12T03:18:51.171Z,37.67
2023-04-12T03:21:18.104Z,37.50
2023-04-12T03:23:44.627Z,37.83
2023-04-12T03:26:11.122Z,37.79
2023-04-12T03:28:37.771Z,37.76
2023-04-12T03:31:04.984Z,38.23
2023-04-12T03:33:31.675Z,37.96
2023-04-12T03:35:58.354Z,38.03
2023-04-12T03:38:24.801Z,38.07
2023-04-12T03:40:51.218Z,38.12
2023-04-12T03:43:17.795Z,38.32
2023-04-12T03:45:44.398Z,38.16
2023-04-12T03:48:12.228Z,38.29
2023-04-12T03:50:44.212Z,38.15
2023-04-12T03:53:11.723Z,38.31
2023-04-12T03:55:38.099Z,38.02
2023-04-12T03:58:05.133Z,38.04
2023-04-12T04:00:32.725Z,38.14
2023-04-12T04:03:03.838Z,38.47
2023-04-12T04:05:31.409Z,38.62
2023-04-12T04:08:00.786Z,38.63
2023-04-12T04:10:28.334Z,38.73
2023-04-12T04:12:55.135Z,38.59
2023-04-12T04:15:21.514Z,38.55
2023-04-12T04:17:49.099Z,38.54
2023-04-12T04:20:16.202Z,38.42
2023-04-12T04:22:42.647Z,38.55
2023-04-12T04:25:09.645Z,38.79
2023-04-12T04:27:38.334Z,38.77
2023-04-12T04:30:06.130Z,38.81
2023-04-12T04:32:35.603Z,39.29
2023-04-12T04:35:02.355Z,38.98
2023-04-12T04:37:30.527Z,39.00
2023-04-12T04:39:57.229Z,39.40
2023-04-12T04:42:24.485Z,38.79
2023-04-12T04:45:02.567Z,39.09
2023-04-12T04:47:31.716Z,38.92
2023-04-12T04:50:00.486Z,39.06
2023-04-12T04:52:27.123Z,38.91
2023-04-12T04:54:57.507Z,39.13
2023-04-12T04:57:26.856Z,39.16
2023-04-12T04:59:53.351Z,39.68
2023-04-12T05:02:19.762Z,39.12
2023-04-12T05:04:46.493Z,39.14
2023-04-12T05:07:14.155Z,39.15
2023-04-12T05:09:41.004Z,39.34
2023-04-12T05:12:07.678Z,39.33
2023-04-12T05:14:46.811Z,39.29
2023-04-12T05:17:14.485Z,39.75
2023-04-12T05:19:43.723Z,39.64
2023-04-12T05:22:10.612Z,39.79
2023-04-12T05:24:37.287Z,39.72
2023-04-12T05:27:04.128Z,39.90
2023-04-12T05:29:30.541Z,40.13
2023-04-12T05:31:57.042Z,40.29
2023-04-12T05:34:23.669Z,40.34
2023-04-12T05:36:50.054Z,40.55
2023-04-12T05:39:18.239Z,40.66
2023-04-12T05:41:45.998Z,40.75
2023-04-12T05:44:12.620Z,40.59
2023-04-12T05:46:39.129Z,40.64
2023-04-12T05:49:06.178Z,41.09
2023-04-12T05:51:40.841Z,41.02
2023-04-12T05:54:08.206Z,41.38
2023-04-12T05:56:34.702Z,41.12
2023-04-12T05:59:05.313Z,41.13
2023-04-12T06:01:34.559Z,41.00
2023-04-12T06:04:05.735Z,41.52
2023-04-12T06:06:32.464Z,41.42
2023-04-12T06:09:02.695Z,41.61
2023-04-12T06:11:29.233Z,41.77
2023-04-12T06:13:56.100Z,42.00
2023-04-12T06:16:22.492Z,41.91
2023-04-12T06:18:48.897Z,42.25
2023-04-12T06:21:16.419Z,42.09
2023-04-12T06:23:42.731Z,42.24
2023-04-12T06:26:09.657Z,42.19
2023-04-12T06:28:36.338Z,42.44
2023-04-12T06:31:05.194Z,42.52
2023-04-12T06:33:31.569Z,42.61
2023-04-12T06:35:58.288Z,42.50
2023-04-12T06:38:24.679Z,42.71
2023-04-12T06:40:51.052Z,42.82
2023-04-12T06:43:22.647Z,42.84
2023-04-12T06:45:51.898Z,42.87
2023-04-12T06:48:19.058Z,43.22
2023-04-12T06:50:45.793Z,43.37
2023-04-12T06:53:13.823Z,43.13
2023-04-12T06:55:40.710Z,43.31
2023-04-12T06:58:07.110Z,43.16
2023-04-12T07:00:33.605Z,43.42
2023-04-12T07:03:00.000Z,43.93
2023-04-12T07:05:26.953Z,43.67
2023-04-12T07:07:53.528Z,43.81
2023-04-12T07:10:19.935Z,43.66
2023-04-12T07:12:46.657Z,43.68
2023-04-12T07:15:13.038Z,43.53
2023-04-12T07:17:39.478Z,43.95
2023-04-12T07:20:06.129Z,44.07
2023-04-12T07:22:33.085Z,44.20
2023-04-12T07:24:59.772Z,44.25
2023-04-12T07:27:26.437Z,44.40
2023-04-12T07:29:53.307Z,44.12
2023-04-12T07:32:20.313Z,44.29
2023-04-12T07:34:48.234Z,44.88
2023-04-12T07:37:14.823Z,43.93
2023-04-12T07:39:41.357Z,44.65
2023-04-12T07:42:07.819Z,44.54
2023-04-12T07:44:36.371Z,44.67
2023-04-12T07:47:04.588Z,44.61
2023-04-12T07:49:30.920Z,44.82
2023-04-12T07:51:57.446Z,44.78
2023-04-12T07:54:28.020Z,45.42
2023-04-12T07:57:02.691Z,45.93
2023-04-12T07:59:30.487Z,44.99
2023-04-12T08:01:57.195Z,45.07
2023-04-12T08:04:24.487Z,45.07
2023-04-12T08:06:51.897Z,45.37
2023-04-12T08:09:18.390Z,45.11
2023-04-12T08:11:44.790Z,45.06
2023-04-12T08:14:11.201Z,45.71
2023-04-12T08:16:37.566Z,45.57
2023-04-12T08:19:04.230Z,45.35
2023-04-12T08:21:30.965Z,45.39
2023-04-12T08:23:57.814Z,45.53
2023-04-12T08:26:24.947Z,45.23
2023-04-12T08:28:51.599Z,45.15
2023-04-12T08:31:18.618Z,45.39
2023-04-12T08:33:47.383Z,45.18
2023-04-12T08:36:14.097Z,45.17
2023-04-12T08:38:45.609Z,45.02
2023-04-12T08:41:14.016Z,44.96
2023-04-12T08:43:44.221Z,45.18
2023-04-12T08:46:15.586Z,44.94
2023-04-12T08:48:47.427Z,45.19
2023-04-12T08:51:16.352Z,45.33
2023-04-12T08:53:43.077Z,45.24
2023-04-12T08:56:13.889Z,45.01
2023-04-12T08:58:42.753Z,45.42
2023-04-12T09:01:15.452Z,45.50
2023-04-12T09:03:43.689Z,45.41
2023-04-12T09:06:11.212Z,45.55
2023-04-12T09:08:37.883Z,45.88
2023-04-12T09:11:24.736Z,46.85
2023-04-12T09:13:51.310Z,45.94
2023-04-12T09:16:20.287Z,45.96
2023-04-12T09:18:51.466Z,46.82
2023-04-12T09:21:18.296Z,46.17
2023-04-12T09:23:44.699Z,46.06
2023-04-12T09:26:27.489Z,47.20
2023-04-12T09:28:54.048Z,45.83
2023-04-12T09:31:20.787Z,45.87
2023-04-12T09:33:47.554Z,45.78
2023-04-12T09:36:14.717Z,45.27
2023-04-12T09:38:43.063Z,45.83
2023-04-12T09:41:22.531Z,45.86
2023-04-12T09:43:51.761Z,45.55
2023-04-12T09:46:18.470Z,45.43
2023-04-12T09:48:52.665Z,45.75
2023-04-12T09:51:32.612Z,46.52
2023-04-12T09:54:06.864Z,45.86
2023-04-12T09:56:35.705Z,46.09
2023-04-12T09:59:07.046Z,46.02
2023-04-12T10:01:39.925Z,46.77
2023-04-12T10:04:08.425Z,45.96
2023-04-12T10:06:36.935Z,46.32
2023-04-12T10:09:04.780Z,46.21
2023-04-12T10:11:32.305Z,46.16
2023-04-12T10:13:59.676Z,46.39
2023-04-12T10:16:27.435Z,46.54
2023-04-12T10:18:55.942Z,46.51
2023-04-12T10:21:23.067Z,46.69
2023-04-12T10:23:50.974Z,46.21
2023-04-12T10:26:17.983Z,46.38
2023-04-12T10:28:47.698Z,46.53
2023-04-12T10:31:30.672Z,47.14
2023-04-12T10:33:57.602Z,46.23
2023-04-12T10:36:56.371Z,46.35
2023-04-12T10:39:37.992Z,47.17
2023-04-12T10:42:26.034Z,47.46
2023-04-12T10:44:55.056Z,46.34
2023-04-12T10:47:49.600Z,47.48
2023-04-12T10:50:29.962Z,47.22
2023-04-12T10:53:18.208Z,47.88
2023-04-12T10:55:45.699Z,46.38
2023-04-12T10:58:50.208Z,47.20
2023-04-12T11:01:19.686Z,46.49
2023-04-12T11:04:22.261Z,46.38
2023-04-12T11:07:04.682Z,45.86
2023-04-12T11:09:34.009Z,45.42
2023-04-12T11:12:03.563Z,45.01
2023-04-12T11:14:35.478Z,45.40
2023-04-12T11:17:08.336Z,44.91
2023-04-12T11:19:38.287Z,45.02
2023-04-12T11:22:06.222Z,44.86
2023-04-12T11:24:37.796Z,44.73
2023-04-12T11:27:04.448Z,44.59
2023-04-12T11:29:32.671Z,44.27
2023-04-12T11:31:59.199Z,44.35
2023-04-12T11:34:26.142Z,44.13
2023-04-12T11:36:53.557Z,43.92
2023-04-12T11:39:20.470Z,43.72
2023-04-12T11:41:48.209Z,43.87
2023-04-12T11:44:18.890Z,43.54
2023-04-12T11:46:45.905Z,43.60
2023-04-12T11:49:17.263Z,44.08
2023-04-12T11:51:44.993Z,43.64
2023-04-12T11:54:12.490Z,43.92
2023-04-12T11:56:39.566Z,43.91
2023-04-12T11:59:06.845Z,44.30
2023-04-12T12:01:37.668Z,44.89
2023-04-12T12:04:05.569Z,44.36
2023-04-12T12:06:32.846Z,44.80
2023-04-12T12:08:59.755Z,45.26
2023-04-12T12:11:27.373Z,45.46
2023-04-12T12:13:55.216Z,45.43
2023-04-12T12:16:27.881Z,45.84
2023-04-12T12:18:56.033Z,45.97
2023-04-12T12:21:22.722Z,45.95
2023-04-12T12:23:50.178Z,46.56
2023-04-12T12:26:24.880Z,47.23
2023-04-12T12:28:55.045Z,46.76
2023-04-12T12:31:28.478Z,47.00
2023-04-12T12:33:59.598Z,46.39
2023-04-12T12:36:36.479Z,47.35
2023-04-12T12:39:12.027Z,46.48
2023-04-12T12:41:39.445Z,46.01
2023-04-12T12:44:07.085Z,45.57
2023-04-12T12:49:05.279Z,45.66
2023-04-12T12:51:32.327Z,45.11
2023-04-12T12:53:59.012Z,45.07
2023-04-12T12:56:25.494Z,44.82
2023-04-12T12:58:52.104Z,44.34
2023-04-12T13:01:19.520Z,44.19
2023-04-12T13:03:46.169Z,44.51
2023-04-12T13:06:12.770Z,44.29
2023-04-12T13:08:39.181Z,44.21
2023-04-12T13:11:09.116Z,44.10
2023-04-12T13:13:38.941Z,44.27
2023-04-12T13:16:05.954Z,44.24
2023-04-12T13:18:32.376Z,44.10
2023-04-12T13:20:58.769Z,43.34
2023-04-12T13:23:25.458Z,43.36
2023-04-12T13:25:56.016Z,42.84
2023-04-12T13:28:22.573Z,42.60
2023-04-12T13:30:50.670Z,42.71
2023-04-12T13:33:21.008Z,42.44
2023-04-12T13:35:48.617Z,42.21
2023-04-12T13:38:14.983Z,42.08
2023-04-12T13:40:41.473Z,42.45
2023-04-12T13:43:08.617Z,41.77
2023-04-12T13:45:35.901Z,42.16
2023-04-12T13:48:02.509Z,41.64
2023-04-12T13:50:29.189Z,42.04
2023-04-12T13:52:55.815Z,42.31
2023-04-12T13:55:22.443Z,42.18
2023-04-12T13:57:48.821Z,41.75
2023-04-12T14:00:15.738Z,41.83
2023-04-12T14:02:42.204Z,41.73
2023-04-12T14:05:09.129Z,41.37
2023-04-12T14:07:38.564Z,41.33
2023-04-12T14:10:05.474Z,41.06
2023-04-12T14:12:32.040Z,41.17
2023-04-12T14:14:58.668Z,40.88
2023-04-12T14:17:25.180Z,40.61
2023-04-12T14:19:51.651Z,40.40
2023-04-12T14:22:18.067Z,40.69
2023-04-12T14:24:44.759Z,40.19
2023-04-12T14:27:12.713Z,39.96
2023-04-12T14:29:39.765Z,39.93
2023-04-12T14:32:06.221Z,40.07
2023-04-12T14:34:32.879Z,39.92
2023-04-12T14:37:00.304Z,39.96
2023-04-12T14:39:27.935Z,39.63
2023-04-12T14:41:54.500Z,39.83
2023-04-12T14:44:21.943Z,40.01
2023-04-12T14:46:50.465Z,39.84
2023-04-12T14:49:17.184Z,39.93
2023-04-12T14:51:43.798Z,39.43
2023-04-12T14:54:10.348Z,39.69
2023-04-12T14:56:44.599Z,39.47
2023-04-12T14:59:18.129Z,39.39
2023-04-12T15:01:44.811Z,39.34
2023-04-12T15:04:11.844Z,38.96
2023-04-12T15:06:51.367Z,38.52
2023-04-12T15:09:17.933Z,38.36
2023-04-12T15:11:46.466Z,38.21
2023-04-12T15:14:20.756Z,38.40
2023-04-12T15:16:49.257Z,38.40
2023-04-12T15:19:20.829Z,38.48
2023-04-12T15:21:50.891Z,38.68
2023-04-12T15:24:18.835Z,39.10
2023-04-12T15:26:48.256Z,39.15
2023-04-12T15:29:16.498Z,39.22
2023-04-12T15:31:43.166Z,39.44
2023-04-12T15:34:10.802Z,40.38
2023-04-12T15:36:40.714Z,40.33
2023-04-12T15:39:07.399Z,40.57
2023-04-12T15:41:37.273Z,41.47
2023-04-12T15:44:09.399Z,42.42
2023-04-12T15:46:36.422Z,41.75
2023-04-12T15:49:03.010Z,42.37
2023-04-12T15:51:29.878Z,42.50
2023-04-12T15:53:56.844Z,42.24
2023-04-12T15:56:26.602Z,42.44
2023-04-12T15:58:57.624Z,42.32
2023-04-12T16:01:25.103Z,42.18
2023-04-12T16:03:52.351Z,42.22
2023-04-12T16:06:20.973Z,41.87
2023-04-12T16:08:48.494Z,42.17
2023-04-12T16:11:17.069Z,42.26
2023-04-12T16:13:45.379Z,41.95
2023-04-12T16:16:13.604Z,41.95
2023-04-12T16:18:42.197Z,42.15
2023-04-12T16:21:09.165Z,42.06
2023-04-12T16:23:39.206Z,41.66
2023-04-12T16:26:05.792Z,41.49
2023-04-12T16:28:33.224Z,41.81
2023-04-12T16:30:59.621Z,42.10
2023-04-12T16:33:27.184Z,42.25
2023-04-12T16:35:53.872Z,42.15
2023-04-12T16:38:20.250Z,42.29
2023-04-12T16:40:47.832Z,42.56
2023-04-12T16:43:14.269Z,42.30
2023-04-12T16:45:45.446Z,42.22
2023-04-12T16:48:16.734Z,42.32
2023-04-12T16:50:46.314Z,42.24
2023-04-12T16:53:13.895Z,42.12
2023-04-12T16:55:47.034Z,41.96
2023-04-12T16:58:14.515Z,41.77
2023-04-12T17:00:43.084Z,41.89
2023-04-12T17:03:11.390Z,41.78
2023-04-12T17:05:40.679Z,41.97
2023-04-12T17:08:09.669Z,41.85
2023-04-12T17:10:37.347Z,41.85
2023-04-12T17:13:04.791Z,41.75
2023-04-12T17:15:31.442Z,41.84
2023-04-12T17:18:10.267Z,41.63
2023-04-12T17:20:37.729Z,41.30
2023-04-12T17:23:05.322Z,41.26
2023-04-12T17:25:32.170Z,41.53
2023-04-12T17:28:03.366Z,41.55
2023-04-12T17:30:30.115Z,41.39
2023-04-12T17:32:57.794Z,41.23
2023-04-12T17:35:24.316Z,41.27
2023-04-12T17:37:50.912Z,41.31
2023-04-12T17:40:17.317Z,41.58
2023-04-12T17:42:44.363Z,41.48
2023-04-12T17:45:12.750Z,41.33
2023-04-12T17:47:39.939Z,41.58
2023-04-12T17:50:08.228Z,41.35
2023-04-12T17:52:34.670Z,41.27
2023-04-12T17:55:01.433Z,41.25
2023-04-12T17:57:28.060Z,41.17
2023-04-12T17:59:54.413Z,41.21
2023-04-12T18:02:21.603Z,40.90
2023-04-12T18:04:48.549Z,40.87
2023-04-12T18:07:16.710Z,40.95
2023-04-12T18:09:45.818Z,40.84
2023-04-12T18:12:13.089Z,41.00
2023-04-12T18:14:41.008Z,40.76
2023-04-12T18:17:08.133Z,40.93
2023-04-12T18:19:34.735Z,40.91
2023-04-12T18:22:01.268Z,40.80
2023-04-12T18:24:28.962Z,40.89
2023-04-12T18:26:56.388Z,41.21
2023-04-12T18:29:23.049Z,40.85
2023-04-12T18:31:49.735Z,41.04
2023-04-12T18:34:19.005Z,41.00
2023-04-12T18:36:45.697Z,40.94
2023-04-12T18:39:12.332Z,41.02
2023-04-12T18:41:40.829Z,40.75
2023-04-12T18:44:11.927Z,41.05
2023-04-12T18:46:39.286Z,40.63
2023-04-12T18:49:05.998Z,40.88
2023-04-12T18:51:33.369Z,40.62
2023-04-12T18:54:02.331Z,40.72
2023-04-12T18:56:28.880Z,40.83
2023-04-12T18:58:56.661Z,41.12
2023-04-12T19:01:24.402Z,41.03
2023-04-12T19:03:51.469Z,41.13
2023-04-12T19:06:18.603Z,40.92
2023-04-12T19:08:45.124Z,41.16
2023-04-12T19:11:11.635Z,41.13
2023-04-12T19:13:38.566Z,41.22
2023-04-12T19:16:08.540Z,41.13
2023-04-12T19:18:35.442Z,40.72
2023-04-12T19:21:02.844Z,41.14
2023-04-12T19:23:30.331Z,41.21
2023-04-12T19:25:59.698Z,41.50
2023-04-12T19:28:27.271Z,41.13
2023-04-12T19:30:56.612Z,41.70
2023-04-12T19:33:24.828Z,41.61
2023-04-12T19:35:56.182Z,41.66
2023-04-12T19:38:23.212Z,41.81
2023-04-12T19:40:51.979Z,41.95
2023-04-12T19:43:19.412Z,41.41
2023-04-12T19:45:45.982Z,41.45
2023-04-12T19:48:13.252Z,41.58
2023-04-12T19:50:39.795Z,41.66
2023-04-12T19:53:06.291Z,41.72
2023-04-12T19:55:32.678Z,42.25
2023-04-12T19:57:59.404Z,41.99
2023-04-12T20:00:27.153Z,41.96
2023-04-12T20:02:54.411Z,42.09
2023-04-12T20:05:23.402Z,42.25
2023-04-12T20:07:49.962Z,42.50
2023-04-12T20:10:17.788Z,42.87
2023-04-12T20:12:45.709Z,42.49
2023-04-12T20:15:12.530Z,42.69
2023-04-12T20:17:43.927Z,42.96
2023-04-12T20:20:12.958Z,42.98
2023-04-12T20:22:45.687Z,43.66
2023-04-12T20:25:13.031Z,43.29
2023-04-12T20:27:39.516Z,43.29
2023-04-12T20:30:10.313Z,43.62
2023-04-12T20:32:37.377Z,43.04
2023-04-12T20:35:04.712Z,43.42
2023-04-12T20:37:31.114Z,43.22
2023-04-12T20:39:59.400Z,43.24
2023-04-12T20:42:26.429Z,43.36
2023-04-12T20:44:53.372Z,43.80
2023-04-12T20:47:20.171Z,43.22
2023-04-12T20:49:46.526Z,43.50
2023-04-12T20:52:16.993Z,43.63
2023-04-12T20:54:45.700Z,43.46
2023-04-12T20:57:13.115Z,43.26
2023-04-12T20:59:39.662Z,43.47
2023-04-12T21:02:06.165Z,43.48
2023-04-12T21:04:36.025Z,43.67
2023-04-12T21:07:03.211Z,42.89
2023-04-12T21:09:30.000Z,42.92
2023-04-12T21:11:58.139Z,42.78
2023-04-12T21:14:24.747Z,43.16
2023-04-12T21:16:51.244Z,42.85
2023-04-12T21:19:18.432Z,43.12
2023-04-12T21:21:46.144Z,42.97
2023-04-12T21:24:13.100Z,42.58
2023-04-12T21:26:40.237Z,42.54
2023-04-12T21:29:06.930Z,42.50
2023-04-12T21:31:33.548Z,42.59
2023-04-12T21:34:00.223Z,42.62
2023-04-12T21:36:30.543Z,42.37
2023-04-12T21:39:00.436Z,42.42
2023-04-12T21:41:27.549Z,41.80
2023-04-12T21:43:54.286Z,42.08
2023-04-12T21:46:21.441Z,41.61
2023-04-12T21:48:47.952Z,41.59
2023-04-12T21:51:14.556Z,41.29
2023-04-12T21:53:41.102Z,41.85
2023-04-12T21:56:07.943Z,41.35
2023-04-12T21:58:34.680Z,41.13
2023-04-12T22:01:01.680Z,40.73
2023-04-12T22:03:28.462Z,40.84
2023-04-12T22:06:04.418Z,40.85
2023-04-12T22:08:32.683Z,40.99
2023-04-12T22:11:00.130Z,41.10
2023-04-12T22:13:26.973Z,40.72
2023-04-12T22:15:53.319Z,40.16
2023-04-12T22:18:19.898Z,40.72
2023-04-12T22:20:46.285Z,40.86
2023-04-12T22:23:13.790Z,40.64
2023-04-12T22:25:40.404Z,40.68
2023-04-12T22:28:07.614Z,40.53
2023-04-12T22:30:35.187Z,40.79
2023-04-12T22:33:01.881Z,40.64
2023-04-12T22:35:30.041Z,40.98
2023-04-12T22:37:56.938Z,41.60
2023-04-12T22:40:23.331Z,41.20
2023-04-12T22:42:49.708Z,41.41
2023-04-12T22:45:17.535Z,41.48
2023-04-12T22:47:45.382Z,42.01
2023-04-12T22:50:12.911Z,41.57
2023-04-12T22:52:40.358Z,41.73
2023-04-12T22:55:08.681Z,41.78
2023-04-12T22:57:36.189Z,42.06
2023-04-12T23:00:05.692Z,42.05
2023-04-12T23:02:33.713Z,42.45
2023-04-12T23:05:00.908Z,42.01
2023-04-12T23:07:30.179Z,42.19
2023-04-12T23:09:57.770Z,41.88
2023-04-12T23:12:24.758Z,42.47
2023-04-12T23:14:55.308Z,41.92
2023-04-12T23:17:21.761Z,41.87
2023-04-12T23:19:51.299Z,42.12
2023-04-12T23:22:44.544Z,42.36
2023-04-12T23:25:39.784Z,42.34
2023-04-12T23:28:14.200Z,42.30
2023-04-12T23:30:51.532Z,42.18
2023-04-12T23:33:21.059Z,42.47
2023-04-12T23:35:58.810Z,42.76
2023-04-12T23:38:32.132Z,41.95
2023-04-12T23:41:04.147Z,42.26
2023-04-12T23:43:32.520Z,42.33
2023-04-12T23:45:59.428Z,42.04
2023-04-12T23:48:26.151Z,42.34
2023-04-12T23:50:52.747Z,42.10
2023-04-12T23:53:19.920Z,42.45
2023-04-12T23:55:48.020Z,42.30
2023-04-12T23:58:14.899Z,42.19
